PWSweather.com
Personal Weather Stations
Station Observations
SPARKSRC
St. Petersburg, FL 33716

St. Petersburg, FL 33716

Lat: 27.876101, Lon: -82.657194

Elevation: 13

Station Type: Zephyr PWS-1000TD

Latest ConditionsUpdated 8:35:02 AM EDT Wednesday, Aug 20, 2014
Currently Today's Max Today's Min Today's Average
Temperature 82.9°F28.3°C 82.9°F28.3°C 76.6°F24.8°C 78.5°F25.8°C
Dew Point 82.7°F28.2°C 82.7°F28.2°C 76.4°F24.7°C 78.2°F25.7°C
Winds 0.7 mph N1.1 kmh N 2.2 mph S3.5 kmh S - 0.8 mph 1.3 kmh
Wind Gusts 2.2 mph3.5 kmh 4.5 mph7.2 kmh - -
Humidity 99% 99% 97% 99%
Pressure 30.02 in1016.6 mb 30.02 in1016.6 mb 29.95 in1014.2 mb -
Hour Temp Dew Point Humidity Winds Wind Gusts Pressure Precip Precip Rate Daily Precip Total
08:35 AM 82.9°F28.3°C 82.7°F28.2°C 99% 0.7 mph N1.1 kmh N 2.2 mph3.5 kmh 30.02 in1016.6 mb 0.00 in0.0 mm 0.00 in/hr0.0 mm/hr 0.00 in0.0 mm
08:30 AM 82.9°F28.3°C 82.7°F28.2°C 99% 0.7 mph SW1.1 kmh SW 2.2 mph3.5 kmh 30.02 in1016.6 mb 0.00 in0.0 mm 0.00 in/hr0.0 mm/hr 0.00 in0.0 mm
08:25 AM 82.0°F27.8°C 81.8°F27.7°C 99% 0.7 mph SSW1.1 kmh SSW 1.6 mph2.6 kmh 30.01 in1016.3 mb 0.00 in0.0 mm 0.00 in/hr0.0 mm/hr 0.00 in0.0 mm
08:20 AM 81.3°F27.4°C 81.1°F27.3°C 99% 0.7 mph SW1.1 kmh SW 1.6 mph2.6 kmh 30.02 in1016.6 mb 0.00 in0.0 mm 0.00 in/hr0.0 mm/hr 0.00 in0.0 mm
08:15 AM 80.8°F27.1°C 80.5°F26.9°C 99% Calm Calm 0.7 mph1.1 kmh 30.01 in1016.3 mb 0.00 in0.0 mm 0.00 in/hr0.0 mm/hr 0.00 in0.0 mm
08:10 AM 80.2°F26.8°C 80.0°F26.7°C 99% Calm Calm 0.7 mph1.1 kmh 30.01 in1016.3 mb 0.00 in0.0 mm 0.00 in/hr0.0 mm/hr 0.00 in0.0 mm
08:05 AM 79.5°F26.4°C 79.3°F26.3°C 99% Calm Calm 0.7 mph1.1 kmh 30.01 in1016.3 mb 0.00 in0.0 mm 0.00 in/hr0.0 mm/hr 0.00 in0.0 mm
08:00 AM 79.0°F26.1°C 78.7°F25.9°C 99% Calm Calm 0.7 mph1.1 kmh 30.01 in1016.3 mb 0.00 in0.0 mm 0.00 in/hr0.0 mm/hr 0.00 in0.0 mm
07:55 AM 78.6°F25.9°C 78.4°F25.8°C 99% Calm Calm 1.6 mph2.6 kmh 30.00 in1015.9 mb 0.00 in0.0 mm 0.00 in/hr0.0 mm/hr 0.00 in0.0 mm
07:50 AM 78.1°F25.6°C 77.8°F25.4°C 99% Calm Calm 1.6 mph2.6 kmh 30.01 in1016.3 mb 0.00 in0.0 mm 0.00 in/hr0.0 mm/hr 0.00 in0.0 mm
07:45 AM 77.7°F25.4°C 77.5°F25.3°C 99% 0.7 mph SE1.1 kmh SE 1.6 mph2.6 kmh 30.00 in1015.9 mb 0.00 in0.0 mm 0.00 in/hr0.0 mm/hr 0.00 in0.0 mm
07:40 AM 77.4°F25.2°C 77.1°F25.1°C 99% Calm Calm 0.7 mph1.1 kmh 29.99 in1015.6 mb 0.00 in0.0 mm 0.00 in/hr0.0 mm/hr 0.00 in0.0 mm
07:35 AM 77.0°F25.0°C 76.8°F24.9°C 99% Calm Calm 1.6 mph2.6 kmh 29.99 in1015.6 mb 0.00 in0.0 mm 0.00 in/hr0.0 mm/hr 0.00 in0.0 mm
07:30 AM 77.0°F25.0°C 76.8°F24.9°C 99% Calm Calm 2.2 mph3.5 kmh 29.99 in1015.6 mb 0.00 in0.0 mm 0.00 in/hr0.0 mm/hr 0.00 in0.0 mm
07:25 AM 77.0°F25.0°C 76.8°F24.9°C 99% 0.7 mph SE1.1 kmh SE 2.2 mph3.5 kmh 29.99 in1015.6 mb 0.00 in0.0 mm 0.00 in/hr0.0 mm/hr 0.00 in0.0 mm
07:20 AM 76.8°F24.9°C 76.6°F24.8°C 99% 1.6 mph SSE2.6 kmh SSE 2.2 mph3.5 kmh 29.99 in1015.6 mb 0.00 in0.0 mm 0.00 in/hr0.0 mm/hr 0.00 in0.0 mm
07:15 AM 76.6°F24.8°C 76.4°F24.7°C 99% Calm Calm 1.6 mph2.6 kmh 30.00 in1015.9 mb 0.00 in0.0 mm 0.00 in/hr0.0 mm/hr 0.00 in0.0 mm
07:10 AM 76.6°F24.8°C 76.4°F24.7°C 99% 0.7 mph S1.1 kmh S 1.6 mph2.6 kmh 29.99 in1015.6 mb 0.00 in0.0 mm 0.00 in/hr0.0 mm/hr 0.00 in0.0 mm
07:05 AM 76.8°F24.9°C 76.6°F24.8°C 99% 0.7 mph S1.1 kmh S 2.2 mph3.5 kmh 29.98 in1015.2 mb 0.00 in0.0 mm 0.00 in/hr0.0 mm/hr 0.00 in0.0 mm
07:00 AM 76.8°F24.9°C 76.6°F24.8°C 99% Calm Calm 2.2 mph3.5 kmh 29.98 in1015.2 mb 0.00 in0.0 mm 0.00 in/hr0.0 mm/hr 0.00 in0.0 mm
06:55 AM 77.0°F25.0°C 76.8°F24.9°C 99% 1.6 mph S2.6 kmh S 2.2 mph3.5 kmh 29.98 in1015.2 mb 0.00 in0.0 mm 0.00 in/hr0.0 mm/hr 0.00 in0.0 mm
06:50 AM 77.0°F25.0°C 76.8°F24.9°C 99% 1.6 mph S2.6 kmh S 2.2 mph3.5 kmh 29.98 in1015.2 mb 0.00 in0.0 mm 0.00 in/hr0.0 mm/hr 0.00 in0.0 mm
06:45 AM 77.0°F25.0°C 76.8°F24.9°C 99% Calm Calm 1.6 mph2.6 kmh 29.98 in1015.2 mb 0.00 in0.0 mm 0.00 in/hr0.0 mm/hr 0.00 in0.0 mm
06:40 AM 77.0°F25.0°C 76.8°F24.9°C 99% Calm Calm 1.6 mph2.6 kmh 29.98 in1015.2 mb 0.00 in0.0 mm 0.00 in/hr0.0 mm/hr 0.00 in0.0 mm
06:35 AM 77.0°F25.0°C 76.8°F24.9°C 99% 0.7 mph S1.1 kmh S 2.2 mph3.5 kmh 29.98 in1015.2 mb 0.00 in0.0 mm 0.00 in/hr0.0 mm/hr 0.00 in0.0 mm
06:30 AM 77.0°F25.0°C 76.8°F24.9°C 99% Calm Calm 2.2 mph3.5 kmh 29.98 in1015.2 mb 0.00 in0.0 mm 0.00 in/hr0.0 mm/hr 0.00 in0.0 mm
06:25 AM 77.0°F25.0°C 76.8°F24.9°C 99% 1.6 mph S2.6 kmh S 2.2 mph3.5 kmh 29.98 in1015.2 mb 0.00 in0.0 mm 0.00 in/hr0.0 mm/hr 0.00 in0.0 mm
06:20 AM 77.0°F25.0°C 76.8°F24.9°C 99% 1.6 mph S2.6 kmh S 2.2 mph3.5 kmh 29.98 in1015.2 mb 0.00 in0.0 mm 0.00 in/hr0.0 mm/hr 0.00 in0.0 mm
06:15 AM 76.8°F24.9°C 76.6°F24.8°C 99% 1.6 mph S2.6 kmh S 2.2 mph3.5 kmh 29.98 in1015.2 mb 0.00 in0.0 mm 0.00 in/hr0.0 mm/hr 0.00 in0.0 mm
06:10 AM 77.0°F25.0°C 76.8°F24.9°C 99% 1.6 mph S2.6 kmh S 2.2 mph3.5 kmh 29.98 in1015.2 mb 0.00 in0.0 mm 0.00 in/hr0.0 mm/hr 0.00 in0.0 mm
06:05 AM 77.2°F25.1°C 76.9°F24.9°C 99% Calm Calm 1.6 mph2.6 kmh 29.98 in1015.2 mb 0.00 in0.0 mm 0.00 in/hr0.0 mm/hr 0.00 in0.0 mm
06:00 AM 77.2°F25.1°C 76.9°F24.9°C 99% Calm Calm 1.6 mph2.6 kmh 29.97 in1014.9 mb 0.00 in0.0 mm 0.00 in/hr0.0 mm/hr 0.00 in0.0 mm
05:55 AM 77.0°F25.0°C 76.8°F24.9°C 99% 0.7 mph S1.1 kmh S 1.6 mph2.6 kmh 29.97 in1014.9 mb 0.00 in0.0 mm 0.00 in/hr0.0 mm/hr 0.00 in0.0 mm
05:50 AM 77.0°F25.0°C 76.8°F24.9°C 99% Calm Calm -- 29.98 in1015.2 mb 0.00 in0.0 mm 0.00 in/hr0.0 mm/hr 0.00 in0.0 mm
05:45 AM 77.0°F25.0°C 76.8°F24.9°C 99% Calm Calm -- 29.96 in1014.6 mb 0.00 in0.0 mm 0.00 in/hr0.0 mm/hr 0.00 in0.0 mm
05:40 AM 77.0°F25.0°C 76.8°F24.9°C 99% Calm Calm -- 29.96 in1014.6 mb 0.00 in0.0 mm 0.00 in/hr0.0 mm/hr 0.00 in0.0 mm
05:35 AM 77.0°F25.0°C 76.8°F24.9°C 99% Calm Calm -- 29.96 in1014.6 mb 0.00 in0.0 mm 0.00 in/hr0.0 mm/hr 0.00 in0.0 mm
05:30 AM 77.0°F25.0°C 76.8°F24.9°C 99% Calm Calm -- 29.96 in1014.6 mb 0.00 in0.0 mm 0.00 in/hr0.0 mm/hr 0.00 in0.0 mm
05:25 AM 77.2°F25.1°C 76.9°F24.9°C 99% Calm Calm -- 29.96 in1014.6 mb 0.00 in0.0 mm 0.00 in/hr0.0 mm/hr 0.00 in0.0 mm
05:20 AM 77.0°F25.0°C 76.8°F24.9°C 99% Calm Calm 1.6 mph2.6 kmh 29.96 in1014.6 mb 0.00 in0.0 mm 0.00 in/hr0.0 mm/hr 0.00 in0.0 mm
05:15 AM 77.2°F25.1°C 76.9°F24.9°C 99% Calm Calm 1.6 mph2.6 kmh 29.96 in1014.6 mb 0.00 in0.0 mm 0.00 in/hr0.0 mm/hr 0.00 in0.0 mm
05:10 AM 77.2°F25.1°C 76.9°F24.9°C 99% 0.7 mph S1.1 kmh S 1.6 mph2.6 kmh 29.96 in1014.6 mb 0.00 in0.0 mm 0.00 in/hr0.0 mm/hr 0.00 in0.0 mm
05:05 AM 77.2°F25.1°C 76.9°F24.9°C 99% 0.7 mph S1.1 kmh S 2.2 mph3.5 kmh 29.96 in1014.6 mb 0.00 in0.0 mm 0.00 in/hr0.0 mm/hr 0.00 in0.0 mm
05:00 AM 77.2°F25.1°C 76.9°F24.9°C 99% 0.7 mph S1.1 kmh S 3.1 mph5.0 kmh 29.96 in1014.6 mb 0.00 in0.0 mm 0.00 in/hr0.0 mm/hr 0.00 in0.0 mm
04:55 AM 77.0°F25.0°C 76.8°F24.9°C 99% 0.7 mph S1.1 kmh S 3.1 mph5.0 kmh 29.96 in1014.6 mb 0.00 in0.0 mm 0.00 in/hr0.0 mm/hr 0.00 in0.0 mm
04:50 AM 77.4°F25.2°C 77.1°F25.1°C 99% 2.2 mph S3.5 kmh S 3.1 mph5.0 kmh 29.96 in1014.6 mb 0.00 in0.0 mm 0.00 in/hr0.0 mm/hr 0.00 in0.0 mm
04:45 AM 77.4°F25.2°C 77.1°F25.1°C 99% 0.7 mph S1.1 kmh S 3.1 mph5.0 kmh 29.95 in1014.2 mb 0.00 in0.0 mm 0.00 in/hr0.0 mm/hr 0.00 in0.0 mm
04:40 AM 77.5°F25.3°C 77.3°F25.2°C 99% 2.2 mph S3.5 kmh S 3.1 mph5.0 kmh 29.95 in1014.2 mb 0.00 in0.0 mm 0.00 in/hr0.0 mm/hr 0.00 in0.0 mm
04:35 AM 77.4°F25.2°C 77.1°F25.1°C 99% 2.2 mph S3.5 kmh S 3.1 mph5.0 kmh 29.95 in1014.2 mb 0.00 in0.0 mm 0.00 in/hr0.0 mm/hr 0.00 in0.0 mm
04:30 AM 77.4°F25.2°C 77.1°F25.1°C 99% 1.6 mph S2.6 kmh S 2.2 mph3.5 kmh 29.95 in1014.2 mb 0.00 in0.0 mm 0.00 in/hr0.0 mm/hr 0.00 in0.0 mm
04:25 AM 77.4°F25.2°C 77.1°F25.1°C 99% 1.6 mph SE2.6 kmh SE 2.2 mph3.5 kmh 29.95 in1014.2 mb 0.00 in0.0 mm 0.00 in/hr0.0 mm/hr 0.00 in0.0 mm
04:20 AM 77.4°F25.2°C 77.1°F25.1°C 99% 0.7 mph SE1.1 kmh SE 2.2 mph3.5 kmh 29.95 in1014.2 mb 0.00 in0.0 mm 0.00 in/hr0.0 mm/hr 0.00 in0.0 mm
04:15 AM 77.5°F25.3°C 77.3°F25.2°C 99% 1.6 mph S2.6 kmh S 2.2 mph3.5 kmh 29.95 in1014.2 mb 0.00 in0.0 mm 0.00 in/hr0.0 mm/hr 0.00 in0.0 mm
04:10 AM 77.7°F25.4°C 77.5°F25.3°C 99% 1.6 mph SW2.6 kmh SW 2.2 mph3.5 kmh 29.95 in1014.2 mb 0.00 in0.0 mm 0.00 in/hr0.0 mm/hr 0.00 in0.0 mm
04:05 AM 78.1°F25.6°C 77.8°F25.4°C 99% Calm Calm 1.6 mph2.6 kmh 29.95 in1014.2 mb 0.00 in0.0 mm 0.00 in/hr0.0 mm/hr 0.00 in0.0 mm
04:00 AM 78.1°F25.6°C 77.8°F25.4°C 99% 0.7 mph SW1.1 kmh SW 2.2 mph3.5 kmh 29.95 in1014.2 mb 0.00 in0.0 mm 0.00 in/hr0.0 mm/hr 0.00 in0.0 mm
03:55 AM 78.1°F25.6°C 77.8°F25.4°C 99% 0.7 mph WSW1.1 kmh WSW 2.2 mph3.5 kmh 29.96 in1014.6 mb 0.00 in0.0 mm 0.00 in/hr0.0 mm/hr 0.00 in0.0 mm
03:50 AM 78.4°F25.8°C 78.2°F25.7°C 99% 0.7 mph W1.1 kmh W 2.2 mph3.5 kmh 29.95 in1014.2 mb 0.00 in0.0 mm 0.00 in/hr0.0 mm/hr 0.00 in0.0 mm
03:45 AM 78.4°F25.8°C 78.2°F25.7°C 99% 0.7 mph W1.1 kmh W 2.2 mph3.5 kmh 29.96 in1014.6 mb 0.00 in0.0 mm 0.00 in/hr0.0 mm/hr 0.00 in0.0 mm
03:40 AM 78.4°F25.8°C 78.2°F25.7°C 99% 1.6 mph W2.6 kmh W 2.2 mph3.5 kmh 29.96 in1014.6 mb 0.00 in0.0 mm 0.00 in/hr0.0 mm/hr 0.00 in0.0 mm
03:35 AM 78.4°F25.8°C 78.2°F25.7°C 99% 0.7 mph W1.1 kmh W 2.2 mph3.5 kmh 29.96 in1014.6 mb 0.00 in0.0 mm 0.00 in/hr0.0 mm/hr 0.00 in0.0 mm
03:30 AM 78.3°F25.7°C 78.0°F25.6°C 99% 1.6 mph W2.6 kmh W 3.8 mph6.1 kmh 29.96 in1014.6 mb 0.00 in0.0 mm 0.00 in/hr0.0 mm/hr 0.00 in0.0 mm
03:25 AM 78.3°F25.7°C 78.0°F25.6°C 99% 0.7 mph WNW1.1 kmh WNW 3.8 mph6.1 kmh 29.96 in1014.6 mb 0.00 in0.0 mm 0.00 in/hr0.0 mm/hr 0.00 in0.0 mm
03:20 AM 78.1°F25.6°C 77.8°F25.4°C 99% 0.7 mph WNW1.1 kmh WNW 2.2 mph3.5 kmh 29.96 in1014.6 mb 0.00 in0.0 mm 0.00 in/hr0.0 mm/hr 0.00 in0.0 mm
03:15 AM 78.1°F25.6°C 77.8°F25.4°C 99% 0.7 mph WSW1.1 kmh WSW 1.6 mph2.6 kmh 29.96 in1014.6 mb 0.00 in0.0 mm 0.00 in/hr0.0 mm/hr 0.00 in0.0 mm
03:10 AM 78.1°F25.6°C 77.8°F25.4°C 99% Calm Calm 1.6 mph2.6 kmh 29.96 in1014.6 mb 0.00 in0.0 mm 0.00 in/hr0.0 mm/hr 0.00 in0.0 mm
03:05 AM 78.3°F25.7°C 78.0°F25.6°C 99% 0.7 mph SW1.1 kmh SW 2.2 mph3.5 kmh 29.96 in1014.6 mb 0.00 in0.0 mm 0.00 in/hr0.0 mm/hr 0.00 in0.0 mm
03:00 AM 78.1°F25.6°C 77.8°F25.4°C 99% 0.7 mph SSW1.1 kmh SSW 3.1 mph5.0 kmh 29.96 in1014.6 mb 0.00 in0.0 mm 0.00 in/hr0.0 mm/hr 0.00 in0.0 mm
02:55 AM 78.3°F25.7°C 78.0°F25.6°C 99% 1.6 mph S2.6 kmh S 3.1 mph5.0 kmh 29.96 in1014.6 mb 0.00 in0.0 mm 0.00 in/hr0.0 mm/hr 0.00 in0.0 mm
02:50 AM 78.6°F25.9°C 78.4°F25.8°C 99% 1.6 mph SW2.6 kmh SW 2.2 mph3.5 kmh 29.96 in1014.6 mb 0.00 in0.0 mm 0.00 in/hr0.0 mm/hr 0.00 in0.0 mm
02:45 AM 79.2°F26.2°C 78.9°F26.1°C 99% Calm Calm 3.1 mph5.0 kmh 29.96 in1014.6 mb 0.00 in0.0 mm 0.00 in/hr0.0 mm/hr 0.00 in0.0 mm
02:40 AM 79.3°F26.3°C 79.1°F26.2°C 99% 0.7 mph W1.1 kmh W 3.1 mph5.0 kmh 29.96 in1014.6 mb 0.00 in0.0 mm 0.00 in/hr0.0 mm/hr 0.00 in0.0 mm
02:35 AM 79.3°F26.3°C 79.1°F26.2°C 99% 2.2 mph W3.5 kmh W 3.1 mph5.0 kmh 29.96 in1014.6 mb 0.00 in0.0 mm 0.00 in/hr0.0 mm/hr 0.00 in0.0 mm
02:30 AM 79.3°F26.3°C 79.1°F26.2°C 99% 2.2 mph W3.5 kmh W 3.1 mph5.0 kmh 29.96 in1014.6 mb 0.00 in0.0 mm 0.00 in/hr0.0 mm/hr 0.00 in0.0 mm
02:25 AM 79.5°F26.4°C 79.3°F26.3°C 99% Calm Calm 3.1 mph5.0 kmh 29.96 in1014.6 mb 0.00 in0.0 mm 0.00 in/hr0.0 mm/hr 0.00 in0.0 mm
02:20 AM 79.3°F26.3°C 79.1°F26.2°C 99% 0.7 mph WNW1.1 kmh WNW 3.1 mph5.0 kmh 29.96 in1014.6 mb 0.00 in0.0 mm 0.00 in/hr0.0 mm/hr 0.00 in0.0 mm
02:15 AM 79.3°F26.3°C 79.1°F26.2°C 99% 1.6 mph WNW2.6 kmh WNW 3.1 mph5.0 kmh 29.97 in1014.9 mb 0.00 in0.0 mm 0.00 in/hr0.0 mm/hr 0.00 in0.0 mm
02:10 AM 79.3°F26.3°C 79.1°F26.2°C 99% Calm Calm 3.1 mph5.0 kmh 29.96 in1014.6 mb 0.00 in0.0 mm 0.00 in/hr0.0 mm/hr 0.00 in0.0 mm
02:05 AM 79.2°F26.2°C 78.9°F26.1°C 99% 1.6 mph NW2.6 kmh NW 2.2 mph3.5 kmh 29.96 in1014.6 mb 0.00 in0.0 mm 0.00 in/hr0.0 mm/hr 0.00 in0.0 mm
02:00 AM 79.3°F26.3°C 79.1°F26.2°C 99% 0.7 mph SW1.1 kmh SW 2.2 mph3.5 kmh 29.97 in1014.9 mb 0.00 in0.0 mm 0.00 in/hr0.0 mm/hr 0.00 in0.0 mm
01:55 AM 79.3°F26.3°C 79.1°F26.2°C 99% Calm Calm 2.2 mph3.5 kmh 29.97 in1014.9 mb 0.00 in0.0 mm 0.00 in/hr0.0 mm/hr 0.00 in0.0 mm
01:50 AM 79.3°F26.3°C 79.1°F26.2°C 99% 0.7 mph SW1.1 kmh SW 2.2 mph3.5 kmh 29.97 in1014.9 mb 0.00 in0.0 mm 0.00 in/hr0.0 mm/hr 0.00 in0.0 mm
01:45 AM 79.3°F26.3°C 79.1°F26.2°C 99% 1.6 mph SW2.6 kmh SW 2.2 mph3.5 kmh 29.96 in1014.6 mb 0.00 in0.0 mm 0.00 in/hr0.0 mm/hr 0.00 in0.0 mm
01:40 AM 79.5°F26.4°C 79.3°F26.3°C 99% 0.7 mph SW1.1 kmh SW 1.6 mph2.6 kmh 29.96 in1014.6 mb 0.00 in0.0 mm 0.00 in/hr0.0 mm/hr 0.00 in0.0 mm
01:35 AM 79.7°F26.5°C 79.5°F26.4°C 99% Calm Calm 2.2 mph3.5 kmh 29.96 in1014.6 mb 0.00 in0.0 mm 0.00 in/hr0.0 mm/hr 0.00 in0.0 mm
01:30 AM 79.7°F26.5°C 79.5°F26.4°C 99% 0.7 mph SW1.1 kmh SW 2.2 mph3.5 kmh 29.96 in1014.6 mb 0.00 in0.0 mm 0.00 in/hr0.0 mm/hr 0.00 in0.0 mm
01:25 AM 79.7°F26.5°C 79.5°F26.4°C 99% 0.7 mph SW1.1 kmh SW 2.2 mph3.5 kmh 29.97 in1014.9 mb 0.00 in0.0 mm 0.00 in/hr0.0 mm/hr 0.00 in0.0 mm
01:20 AM 79.5°F26.4°C 79.3°F26.3°C 99% 1.6 mph SW2.6 kmh SW 2.2 mph3.5 kmh 29.96 in1014.6 mb 0.00 in0.0 mm 0.00 in/hr0.0 mm/hr 0.00 in0.0 mm
01:15 AM 79.9°F26.6°C 79.6°F26.4°C 99% 1.6 mph SW2.6 kmh SW 2.2 mph3.5 kmh 29.97 in1014.9 mb 0.00 in0.0 mm 0.00 in/hr0.0 mm/hr 0.00 in0.0 mm
01:10 AM 80.1°F26.7°C 79.8°F26.6°C 99% 0.7 mph WSW1.1 kmh WSW 1.6 mph2.6 kmh 29.97 in1014.9 mb 0.00 in0.0 mm 0.00 in/hr0.0 mm/hr 0.00 in0.0 mm
01:05 AM 80.2°F26.8°C 80.0°F26.7°C 99% 0.7 mph W1.1 kmh W 2.2 mph3.5 kmh 29.97 in1014.9 mb 0.00 in0.0 mm 0.00 in/hr0.0 mm/hr 0.00 in0.0 mm
01:00 AM 80.2°F26.8°C 80.0°F26.7°C 99% 0.7 mph W1.1 kmh W 2.2 mph3.5 kmh 29.97 in1014.9 mb 0.00 in0.0 mm 0.00 in/hr0.0 mm/hr 0.00 in0.0 mm
12:55 AM 80.2°F26.8°C 80.0°F26.7°C 99% 0.7 mph W1.1 kmh W 2.2 mph3.5 kmh 29.97 in1014.9 mb 0.00 in0.0 mm 0.00 in/hr0.0 mm/hr 0.00 in0.0 mm
12:50 AM 80.2°F26.8°C 80.0°F26.7°C 99% 0.7 mph WSW1.1 kmh WSW 4.5 mph7.2 kmh 29.97 in1014.9 mb 0.00 in0.0 mm 0.00 in/hr0.0 mm/hr 0.00 in0.0 mm
12:45 AM 80.2°F26.8°C 80.0°F26.7°C 99% 0.7 mph SW1.1 kmh SW 4.5 mph7.2 kmh 29.97 in1014.9 mb 0.00 in0.0 mm 0.00 in/hr0.0 mm/hr 0.00 in0.0 mm
12:40 AM 80.1°F26.7°C 79.8°F26.6°C 99% 2.2 mph SW3.5 kmh SW 3.8 mph6.1 kmh 29.97 in1014.9 mb 0.00 in0.0 mm 0.00 in/hr0.0 mm/hr 0.00 in0.0 mm
12:35 AM 80.1°F26.7°C 79.8°F26.6°C 99% 2.2 mph SW3.5 kmh SW 3.1 mph5.0 kmh 29.97 in1014.9 mb 0.00 in0.0 mm 0.00 in/hr0.0 mm/hr 0.00 in0.0 mm
12:30 AM 80.1°F26.7°C 79.8°F26.6°C 99% 2.2 mph SW3.5 kmh SW 3.1 mph5.0 kmh 29.96 in1014.6 mb 0.00 in0.0 mm 0.00 in/hr0.0 mm/hr 0.00 in0.0 mm
12:25 AM 79.9°F26.6°C 79.6°F26.4°C 99% 0.7 mph W1.1 kmh W 2.2 mph3.5 kmh 29.97 in1014.9 mb 0.00 in0.0 mm 0.00 in/hr0.0 mm/hr 0.00 in0.0 mm
12:20 AM 80.1°F26.7°C 79.8°F26.6°C 99% 0.7 mph S1.1 kmh S 3.1 mph5.0 kmh 29.97 in1014.9 mb 0.00 in0.0 mm 0.00 in/hr0.0 mm/hr 0.00 in0.0 mm
12:15 AM 80.2°F26.8°C 80.0°F26.7°C 99% 1.6 mph S2.6 kmh S 3.1 mph5.0 kmh 29.97 in1014.9 mb 0.00 in0.0 mm 0.00 in/hr0.0 mm/hr 0.00 in0.0 mm
12:10 AM 80.2°F26.8°C 79.7°F26.5°C 98% 2.2 mph SW3.5 kmh SW 3.1 mph5.0 kmh 29.97 in1014.9 mb 0.00 in0.0 mm 0.00 in/hr0.0 mm/hr 0.00 in0.0 mm
12:05 AM 80.6°F27.0°C 79.7°F26.5°C 97% Calm Calm 1.6 mph2.6 kmh 29.97 in1014.9 mb 0.00 in0.0 mm 0.00 in/hr0.0 mm/hr 0.00 in0.0 mm
12:00 AM 80.6°F27.0°C 79.7°F26.5°C 97% Calm Calm 3.8 mph6.1 kmh 29.97 in1014.9 mb 0.00 in0.0 mm 0.00 in/hr0.0 mm/hr 0.00 in0.0 mm